Time;durP1;ratioP1;P1;durP2;ratioP2;P2;SDS_P1;SDS_P2;PMS_P1;PMS_P2;Temp;Humidity;BMP_temperature;BMP_pressure;BME280_temperature;BME280_humidity;BME280_pressure;Samples;Min_cycle;Max_cycle;Signal;HPM_P1;HPM_P2
2022/07/04 00:01:42;;;;;;;1.98;1.48;;;22.80;96.20;;;;;;4952429;28;20206;-71
2022/07/04 00:04:09;;;;;;;3.50;1.90;;;22.80;95.90;;;;;;4951792;29;20203;-73
2022/07/04 00:06:35;;;;;;;3.20;1.73;;;22.80;95.90;;;;;;4956671;28;20587;-70
2022/07/04 00:09:02;;;;;;;4.60;1.75;;;22.80;95.90;;;;;;4972621;28;20201;-71
2022/07/04 00:11:29;;;;;;;3.13;2.10;;;22.70;95.30;;;;;;4948634;28;20265;-71
2022/07/04 00:13:55;;;;;;;3.75;1.80;;;22.70;94.70;;;;;;4965359;28;20672;-72
2022/07/04 00:16:21;;;;;;;5.20;1.70;;;22.80;94.50;;;;;;4950260;29;20207;-72
2022/07/04 00:18:48;;;;;;;3.80;1.80;;;22.80;94.40;;;;;;4949681;29;20198;-71
2022/07/04 00:21:15;;;;;;;3.17;1.80;;;22.80;94.10;;;;;;4950757;28;20205;-72
2022/07/04 00:23:41;;;;;;;4.85;1.70;;;22.90;94.20;;;;;;4965263;28;20206;-71
2022/07/04 00:26:07;;;;;;;4.25;1.83;;;22.90;94.10;;;;;;4959501;28;20238;-69
2022/07/04 00:28:34;;;;;;;2.78;1.85;;;23.00;94.40;;;;;;4946193;29;20195;-72
2022/07/04 00:31:00;;;;;;;2.20;1.60;;;23.00;94.30;;;;;;4935068;29;20199;-71
2022/07/04 00:33:26;;;;;;;10.60;1.90;;;23.00;94.60;;;;;;4950661;28;20218;-70
2022/07/04 00:35:52;;;;;;;2.72;1.60;;;23.00;94.30;;;;;;4939275;28;20187;-70
2022/07/04 00:38:18;;;;;;;2.30;1.50;;;23.00;93.80;;;;;;4949482;28;20186;-71
2022/07/04 00:40:45;;;;;;;6.78;1.73;;;23.00;93.30;;;;;;4950474;29;20195;-71
2022/07/04 00:43:11;;;;;;;4.47;1.83;;;23.00;93.00;;;;;;4946380;28;20568;-72
2022/07/04 00:45:38;;;;;;;2.83;1.63;;;23.00;93.00;;;;;;4946800;28;20279;-72
2022/07/04 00:48:06;;;;;;;5.90;1.60;;;23.00;92.40;;;;;;4953970;28;20187;-72
2022/07/04 00:50:32;;;;;;;3.15;1.88;;;23.00;92.90;;;;;;4950159;28;20202;-73
2022/07/04 00:53:00;;;;;;;3.33;1.80;;;23.10;93.00;;;;;;4933167;29;20283;-71
2022/07/04 00:55:27;;;;;;;6.07;1.88;;;23.00;93.00;;;;;;4965150;28;20198;-72
2022/07/04 00:57:54;;;;;;;3.70;1.73;;;23.00;92.90;;;;;;4950835;29;20222;-71
2022/07/04 01:00:21;;;;;;;3.00;1.70;;;23.00;92.90;;;;;;4951317;28;20199;-73
2022/07/04 01:02:47;;;;;;;3.65;1.92;;;22.90;92.70;;;;;;4950912;29;20218;-72
2022/07/04 01:05:19;;;;;;;4.03;1.40;;;22.90;92.60;;;;;;4949805;28;20334;-71
2022/07/04 01:07:46;;;;;;;2.15;1.83;;;22.90;92.50;;;;;;4935104;29;20584;-72
2022/07/04 01:10:13;;;;;;;8.43;2.13;;;22.90;92.00;;;;;;4960059;28;20222;-70
2022/07/04 01:12:42;;;;;;;2.93;1.50;;;22.90;91.80;;;;;;4933052;29;20309;-70
2022/07/04 01:15:10;;;;;;;7.57;1.57;;;22.90;92.00;;;;;;4963092;28;20222;-72
2022/07/04 01:17:36;;;;;;;5.13;1.70;;;22.90;92.40;;;;;;4946520;29;20201;-70
2022/07/04 01:20:04;;;;;;;1.92;1.52;;;22.90;93.00;;;;;;4951007;28;20223;-72
2022/07/04 01:22:31;;;;;;;2.37;1.50;;;22.90;93.00;;;;;;4950454;29;20243;-72
2022/07/04 01:24:58;;;;;;;4.55;1.50;;;22.90;93.00;;;;;;4949182;28;20674;-72
2022/07/04 01:27:24;;;;;;;3.55;1.95;;;22.80;92.90;;;;;;4976424;28;20615;-71
2022/07/04 01:29:50;;;;;;;2.10;1.70;;;22.80;92.90;;;;;;4950515;28;20214;-70
2022/07/04 01:32:18;;;;;;;4.68;1.70;;;22.70;92.80;;;;;;4943634;28;20195;-72
2022/07/04 01:34:44;;;;;;;2.05;1.52;;;22.70;92.50;;;;;;4948853;29;20210;-71
2022/07/04 01:37:11;;;;;;;2.58;1.30;;;22.60;92.30;;;;;;4950485;29;20655;-72
2022/07/04 01:39:38;;;;;;;1.90;1.60;;;22.60;92.10;;;;;;4950912;28;20323;-71
2022/07/04 01:42:05;;;;;;;1.87;1.40;;;22.70;92.20;;;;;;4947784;28;20278;-70
2022/07/04 01:44:34;;;;;;;2.70;1.58;;;22.70;92.40;;;;;;4948604;28;20647;-70
2022/07/04 01:47:02;;;;;;;3.20;1.60;;;22.70;92.10;;;;;;4949806;29;20209;-71
2022/07/04 01:49:29;;;;;;;2.72;1.60;;;22.70;92.00;;;;;;4950862;28;20194;-70
2022/07/04 01:51:55;;;;;;;3.93;2.00;;;22.70;92.00;;;;;;4951742;28;20194;-70
2022/07/04 01:54:21;;;;;;;2.60;1.63;;;22.60;91.60;;;;;;4949663;29;20662;-72
2022/07/04 01:56:48;;;;;;;2.55;1.52;;;22.60;92.10;;;;;;4949591;28;20226;-71
2022/07/04 01:59:14;;;;;;;4.80;1.70;;;22.60;92.10;;;;;;4934017;29;20698;-71
2022/07/04 02:01:40;;;;;;;2.67;1.60;;;22.60;92.30;;;;;;4953175;28;20675;-70
2022/07/04 02:04:08;;;;;;;1.67;1.35;;;22.60;92.00;;;;;;4930586;29;20221;-72
2022/07/04 02:06:35;;;;;;;2.33;1.60;;;22.50;92.10;;;;;;4946264;29;20708;-71
2022/07/04 02:09:18;;;;;;;6.75;1.63;;;22.50;92.00;;;;;;4943565;29;20202;-71
2022/07/04 02:14:33;;;;;;;1.55;1.38;;;22.30;91.90;;;;;;4949288;29;20301;-72
2022/07/04 02:17:00;;;;;;;5.30;1.40;;;22.30;92.00;;;;;;4950718;28;20210;-71
2022/07/04 02:19:27;;;;;;;2.63;1.55;;;22.30;91.50;;;;;;4948583;29;20230;-72
2022/07/04 02:21:54;;;;;;;7.88;1.67;;;22.30;91.80;;;;;;4964889;28;20277;-70
2022/07/04 02:24:22;;;;;;;6.67;1.77;;;22.20;91.60;;;;;;4946922;29;20201;-70
2022/07/04 02:26:49;;;;;;;5.07;1.70;;;22.20;91.50;;;;;;4957643;28;20196;-72
2022/07/04 02:29:15;;;;;;;3.33;1.63;;;22.20;91.60;;;;;;4933702;29;20186;-71
2022/07/04 02:31:42;;;;;;;3.38;1.63;;;22.20;91.50;;;;;;4949169;28;20202;-71
2022/07/04 02:34:09;;;;;;;4.10;1.40;;;22.20;91.40;;;;;;4948710;29;20206;-71
2022/07/04 02:36:36;;;;;;;6.37;1.40;;;22.20;91.30;;;;;;4949244;28;20183;-70
2022/07/04 02:39:04;;;;;;;3.77;1.63;;;22.20;91.30;;;;;;4948069;28;20219;-72
2022/07/04 02:41:32;;;;;;;2.55;1.40;;;22.10;91.40;;;;;;4958433;28;20261;-72
2022/07/04 02:43:59;;;;;;;2.33;1.60;;;22.20;91.50;;;;;;4947658;28;20302;-70
2022/07/04 02:46:26;;;;;;;3.60;1.53;;;22.20;91.40;;;;;;4963478;28;20195;-71
2022/07/04 02:48:56;;;;;;;3.00;1.50;;;22.20;91.30;;;;;;4932521;28;20195;-72
2022/07/04 02:51:23;;;;;;;4.70;1.77;;;22.10;91.20;;;;;;4949848;28;20210;-72
2022/07/04 02:53:49;;;;;;;3.77;1.90;;;22.10;91.20;;;;;;4947614;28;20305;-72
2022/07/04 02:56:16;;;;;;;3.00;1.50;;;22.10;91.20;;;;;;4954717;28;20202;-70
2022/07/04 02:58:42;;;;;;;1.65;1.55;;;22.00;91.20;;;;;;4964669;28;20647;-69
2022/07/04 03:01:09;;;;;;;2.33;1.53;;;22.00;91.20;;;;;;4947726;28;20194;-71
2022/07/04 03:03:36;;;;;;;1.60;1.30;;;22.00;91.30;;;;;;4926937;29;20218;-71
2022/07/04 03:06:02;;;;;;;4.73;1.67;;;22.10;91.10;;;;;;4945608;28;20188;-72
2022/07/04 03:08:28;;;;;;;5.23;1.50;;;22.10;91.20;;;;;;4920333;29;20263;-71
2022/07/04 03:10:55;;;;;;;2.73;1.50;;;22.10;91.10;;;;;;4951791;29;20257;-71
2022/07/04 03:13:21;;;;;;;2.25;1.70;;;22.00;91.20;;;;;;4953204;28;20270;-70
2022/07/04 03:15:48;;;;;;;2.03;1.60;;;22.00;91.10;;;;;;4952132;28;20293;-71
2022/07/04 03:18:14;;;;;;;2.90;1.70;;;22.00;91.20;;;;;;4936812;29;20282;-72
2022/07/04 03:20:41;;;;;;;2.60;1.40;;;22.00;91.10;;;;;;4960321;28;20198;-69
2022/07/04 03:23:07;;;;;;;6.40;1.67;;;21.90;91.50;;;;;;4966149;28;20298;-70
2022/07/04 03:25:35;;;;;;;2.37;1.50;;;22.00;91.50;;;;;;4966740;28;20282;-70
2022/07/04 03:28:02;;;;;;;2.23;1.60;;;22.00;91.50;;;;;;4962234;28;20290;-70
2022/07/04 03:30:28;;;;;;;3.63;1.83;;;22.00;91.70;;;;;;4954481;28;20194;-72
2022/07/04 03:32:55;;;;;;;2.20;1.50;;;21.90;91.80;;;;;;4952911;28;20246;-71
2022/07/04 03:35:21;;;;;;;2.67;1.97;;;22.00;91.80;;;;;;4947731;28;21042;-71
2022/07/04 03:37:48;;;;;;;2.07;1.53;;;22.00;92.10;;;;;;4947916;29;20278;-72
2022/07/04 03:40:15;;;;;;;2.30;1.60;;;22.00;92.20;;;;;;4951812;28;20183;-72
2022/07/04 03:42:41;;;;;;;1.77;1.40;;;22.00;92.30;;;;;;4952827;29;20195;-72
2022/07/04 03:45:08;;;;;;;4.47;1.80;;;22.00;92.20;;;;;;4936043;29;20234;-72
2022/07/04 03:47:34;;;;;;;5.20;1.60;;;22.00;92.50;;;;;;4952057;29;20195;-71
2022/07/04 03:50:01;;;;;;;3.47;1.60;;;21.90;92.50;;;;;;4962458;28;20437;-70
2022/07/04 03:52:29;;;;;;;3.40;1.60;;;22.00;92.70;;;;;;4934012;29;20270;-72
2022/07/04 03:54:55;;;;;;;5.93;1.70;;;22.00;92.60;;;;;;4948620;29;20223;-70
2022/07/04 03:57:22;;;;;;;2.67;1.53;;;22.00;92.50;;;;;;4951314;29;20197;-74
2022/07/04 03:59:49;;;;;;;4.33;1.57;;;21.90;92.70;;;;;;4953231;29;20297;-73
2022/07/04 04:02:15;;;;;;;2.60;1.60;;;22.00;92.90;;;;;;4949180;28;20222;-70
2022/07/04 04:07:27;;;;;;;2.60;1.50;;;22.00;92.80;;;;;;4951583;28;20195;-72
2022/07/04 04:09:54;;;;;;;2.93;1.60;;;22.00;92.80;;;;;;4935062;28;20187;-72
2022/07/04 04:12:21;;;;;;;3.67;1.40;;;22.00;93.00;;;;;;4951043;28;20246;-73
2022/07/04 04:14:47;;;;;;;1.95;1.33;;;22.10;93.30;;;;;;4950234;28;20664;-70
2022/07/04 04:17:14;;;;;;;2.37;1.50;;;22.10;93.40;;;;;;4933651;29;20199;-70
2022/07/04 04:19:40;;;;;;;1.90;1.57;;;22.20;93.50;;;;;;4946865;28;20267;-70
2022/07/04 04:22:06;;;;;;;4.05;1.50;;;22.30;93.50;;;;;;4933972;29;20195;-70
2022/07/04 04:24:32;;;;;;;1.97;1.67;;;22.40;93.60;;;;;;4950198;29;20277;-71
2022/07/04 04:26:59;;;;;;;4.40;1.67;;;22.40;93.70;;;;;;4940856;29;20187;-70
2022/07/04 04:29:25;;;;;;;1.67;1.43;;;22.50;93.90;;;;;;4959987;28;20191;-70
2022/07/04 04:31:51;;;;;;;3.33;1.60;;;22.50;94.10;;;;;;4950580;29;20532;-72
2022/07/04 04:34:21;;;;;;;2.10;1.40;;;22.60;94.40;;;;;;4951717;28;20663;-73
2022/07/04 04:36:47;;;;;;;2.78;1.63;;;22.70;95.00;;;;;;4950741;29;20234;-70
2022/07/04 04:39:14;;;;;;;5.57;1.80;;;22.90;95.10;;;;;;4951631;28;20201;-71
2022/07/04 04:41:41;;;;;;;3.63;1.52;;;23.00;95.00;;;;;;4952644;29;20191;-71
2022/07/04 04:44:08;;;;;;;1.83;1.60;;;23.10;94.40;;;;;;4950061;28;20192;-71
2022/07/04 04:46:34;;;;;;;2.97;1.45;;;23.20;95.10;;;;;;4950140;29;20287;-71
2022/07/04 04:49:01;;;;;;;6.40;2.00;;;23.30;95.30;;;;;;4960358;28;20203;-72
2022/07/04 04:51:28;;;;;;;3.63;1.60;;;23.40;95.50;;;;;;4943223;29;20191;-71
2022/07/04 04:53:54;;;;;;;3.65;1.70;;;23.50;96.50;;;;;;4957872;28;20702;-71
2022/07/04 04:56:21;;;;;;;5.70;2.00;;;23.60;96.70;;;;;;4932670;29;20708;-71
2022/07/04 04:58:47;;;;;;;5.63;1.80;;;23.60;96.60;;;;;;4956565;28;20636;-71
2022/07/04 05:01:15;;;;;;;5.53;1.75;;;23.70;96.70;;;;;;4933969;29;20402;-72
2022/07/04 05:03:41;;;;;;;5.47;1.75;;;23.70;96.80;;;;;;4950155;29;20191;-72
2022/07/04 05:06:08;;;;;;;4.47;1.80;;;23.80;97.10;;;;;;4949936;28;20195;-70
2022/07/04 05:08:35;;;;;;;3.60;1.60;;;23.80;96.20;;;;;;4951820;28;20190;-72
2022/07/04 05:11:01;;;;;;;4.18;1.70;;;23.90;94.70;;;;;;4949537;29;20241;-71
2022/07/04 05:13:27;;;;;;;2.35;1.70;;;24.00;94.60;;;;;;4949095;28;20266;-70
2022/07/04 05:15:54;;;;;;;4.38;1.70;;;24.00;94.30;;;;;;4949087;28;20191;-71
2022/07/04 05:18:20;;;;;;;2.97;1.85;;;24.10;93.40;;;;;;4950678;28;20640;-71
2022/07/04 05:20:46;;;;;;;3.53;1.63;;;24.10;93.70;;;;;;4952607;28;20738;-72
2022/07/04 05:23:13;;;;;;;5.22;1.55;;;24.20;94.20;;;;;;4947462;29;20194;-71
2022/07/04 05:25:39;;;;;;;2.20;1.80;;;24.20;94.10;;;;;;4939774;28;20205;-72
2022/07/04 05:28:06;;;;;;;7.15;1.80;;;24.30;94.60;;;;;;4954434;28;20201;-72
2022/07/04 05:30:32;;;;;;;5.97;1.70;;;24.30;94.80;;;;;;4950165;28;20809;-72
2022/07/04 05:33:00;;;;;;;3.85;1.35;;;24.40;94.90;;;;;;4949862;28;20186;-72
2022/07/04 05:35:29;;;;;;;3.05;1.77;;;24.50;94.00;;;;;;4951385;28;20746;-71
2022/07/04 05:37:55;;;;;;;3.88;1.75;;;24.60;94.60;;;;;;4949616;29;20214;-71
2022/07/04 05:40:22;;;;;;;7.28;2.00;;;24.60;94.90;;;;;;4949328;28;20187;-70
2022/07/04 05:42:51;;;;;;;3.10;1.85;;;24.70;95.30;;;;;;4949900;28;20190;-71
2022/07/04 05:45:17;;;;;;;7.07;1.88;;;24.70;95.40;;;;;;4949198;28;20285;-73
2022/07/04 05:47:44;;;;;;;6.90;1.90;;;24.70;94.80;;;;;;4949801;29;20195;-71
2022/07/04 05:50:11;;;;;;;5.43;1.90;;;24.80;94.70;;;;;;4949165;29;20206;-73
2022/07/04 05:52:37;;;;;;;5.57;1.60;;;24.80;94.10;;;;;;4948573;29;20268;-72
2022/07/04 05:55:06;;;;;;;2.83;1.70;;;24.90;94.70;;;;;;4948685;29;20219;-71
2022/07/04 05:57:32;;;;;;;4.13;1.70;;;25.00;94.60;;;;;;4950729;28;20642;-73
2022/07/04 05:59:59;;;;;;;2.88;1.98;;;25.00;94.90;;;;;;4946422;28;20195;-72
2022/07/04 06:02:26;;;;;;;5.38;1.98;;;25.10;94.60;;;;;;4941877;28;20201;-73
2022/07/04 06:04:53;;;;;;;2.75;1.67;;;25.20;94.10;;;;;;4950275;28;20198;-71
2022/07/04 06:07:19;;;;;;;3.95;1.85;;;25.30;94.30;;;;;;4948168;28;20709;-72
2022/07/04 06:09:46;;;;;;;5.38;2.10;;;25.40;93.80;;;;;;4948015;29;20249;-71
2022/07/04 06:12:12;;;;;;;4.15;1.67;;;25.40;93.50;;;;;;4954877;28;20222;-72
2022/07/04 06:14:38;;;;;;;3.95;1.88;;;25.50;93.30;;;;;;4942757;29;20230;-72
2022/07/04 06:17:05;;;;;;;3.58;1.77;;;25.60;93.10;;;;;;4948737;28;20676;-73
2022/07/04 06:19:31;;;;;;;5.68;1.95;;;25.70;92.00;;;;;;4947852;29;20205;-71
2022/07/04 06:21:58;;;;;;;4.78;1.80;;;25.90;91.00;;;;;;4950726;29;20194;-73
2022/07/04 06:24:25;;;;;;;4.95;1.80;;;26.00;90.90;;;;;;4947463;29;20257;-71
2022/07/04 06:26:51;;;;;;;9.45;1.80;;;26.00;91.60;;;;;;4950112;28;20206;-71
2022/07/04 06:29:17;;;;;;;3.63;1.60;;;26.10;91.40;;;;;;4947999;29;20198;-71
2022/07/04 06:31:44;;;;;;;5.93;1.90;;;26.20;90.90;;;;;;4948999;29;20198;-72
2022/07/04 06:36:56;;;;;;;4.60;2.08;;;26.40;90.00;;;;;;4947921;28;20198;-73
2022/07/04 06:39:23;;;;;;;4.22;2.03;;;26.50;90.40;;;;;;4947907;29;20226;-71
2022/07/04 06:41:49;;;;;;;6.65;2.00;;;26.60;90.30;;;;;;4948305;28;20246;-73
2022/07/04 06:44:15;;;;;;;7.97;2.10;;;26.70;89.10;;;;;;4949086;28;20246;-73
2022/07/04 06:46:44;;;;;;;6.03;1.88;;;26.80;88.50;;;;;;4949160;28;20187;-71
2022/07/04 06:49:10;;;;;;;5.68;1.80;;;26.90;89.20;;;;;;4949837;29;20289;-70
2022/07/04 06:51:36;;;;;;;4.88;1.70;;;27.10;88.10;;;;;;4947514;28;20201;-71
2022/07/04 06:54:03;;;;;;;7.00;1.88;;;27.20;89.70;;;;;;4947178;28;20244;-72
2022/07/04 06:56:29;;;;;;;7.72;1.80;;;27.30;88.90;;;;;;4945891;29;20183;-72
2022/07/04 06:58:55;;;;;;;5.00;1.98;;;27.40;87.30;;;;;;4947690;29;20198;-71
2022/07/04 07:01:22;;;;;;;6.07;1.88;;;27.60;88.20;;;;;;4932311;28;20190;-71
2022/07/04 07:03:49;;;;;;;6.50;2.00;;;27.60;88.70;;;;;;4953034;28;20734;-71
2022/07/04 07:06:15;;;;;;;2.97;2.15;;;27.70;87.70;;;;;;4949161;29;20209;-71
2022/07/04 07:08:42;;;;;;;2.97;1.85;;;28.00;90.30;;;;;;4932296;29;20187;-71
2022/07/04 07:11:14;;;;;;;6.65;2.03;;;28.10;89.50;;;;;;4945830;28;20203;-72
2022/07/04 07:13:47;;;;;;;6.03;2.17;;;28.20;90.00;;;;;;4940724;28;20276;-71
2022/07/04 07:16:14;;;;;;;3.90;2.20;;;28.40;89.10;;;;;;4925521;29;20759;-72
2022/07/04 07:18:41;;;;;;;4.78;2.00;;;28.60;90.20;;;;;;4958993;28;20194;-74
2022/07/04 07:21:08;;;;;;;4.82;1.95;;;28.70;89.70;;;;;;4947419;29;20290;-70
2022/07/04 07:23:37;;;;;;;2.88;1.98;;;28.80;89.60;;;;;;4949281;28;20191;-72
2022/07/04 07:26:07;;;;;;;10.00;2.30;;;29.00;91.30;;;;;;4949586;28;20186;-71
2022/07/04 07:28:33;;;;;;;2.95;2.03;;;29.10;88.30;;;;;;4947425;28;20275;-72
2022/07/04 07:31:01;;;;;;;12.20;2.05;;;29.10;87.10;;;;;;4948900;28;20191;-70
2022/07/04 07:33:28;;;;;;;6.13;2.05;;;29.20;87.20;;;;;;4966185;28;20206;-72
2022/07/04 07:35:55;;;;;;;4.95;2.05;;;29.30;87.20;;;;;;4947786;28;20254;-71
2022/07/04 07:38:21;;;;;;;9.60;2.17;;;29.30;88.50;;;;;;4959816;28;20533;-73
2022/07/04 07:40:47;;;;;;;4.50;2.17;;;29.30;87.60;;;;;;4952892;28;20188;-71
2022/07/04 07:43:14;;;;;;;5.85;2.30;;;29.40;89.10;;;;;;4961108;28;20187;-73
2022/07/04 07:45:41;;;;;;;9.68;2.10;;;29.50;90.50;;;;;;4952409;28;20634;-70
2022/07/04 07:48:08;;;;;;;7.07;2.17;;;29.70;91.00;;;;;;4951339;28;20529;-72
2022/07/04 07:50:34;;;;;;;7.68;1.90;;;29.70;91.20;;;;;;4946916;29;20298;-73
2022/07/04 07:53:01;;;;;;;5.90;1.90;;;29.80;92.00;;;;;;4949510;28;20203;-72
2022/07/04 07:55:27;;;;;;;9.40;2.05;;;29.90;91.60;;;;;;4958108;28;20217;-72
2022/07/04 07:57:58;;;;;;;3.65;2.10;;;30.00;90.90;;;;;;4952560;28;20217;-73
2022/07/04 08:00:25;;;;;;;4.32;1.90;;;30.20;91.00;;;;;;4950199;28;20210;-73
2022/07/04 08:05:39;;;;;;;13.30;2.50;;;30.30;91.20;;;;;;4967425;28;20187;-72
2022/07/04 08:08:07;;;;;;;13.23;2.38;;;30.40;91.30;;;;;;4933773;28;20757;-71
2022/07/04 08:10:33;;;;;;;5.28;2.10;;;30.50;90.50;;;;;;4974820;28;20555;-74
2022/07/04 08:13:00;;;;;;;4.88;2.08;;;30.60;90.70;;;;;;4954663;28;20218;-71
2022/07/04 08:15:26;;;;;;;7.55;1.90;;;30.70;91.20;;;;;;4947242;28;20759;-71
2022/07/04 08:17:53;;;;;;;7.53;2.00;;;30.70;90.90;;;;;;4966433;28;20532;-71
2022/07/04 08:20:20;;;;;;;5.75;2.00;;;30.80;91.30;;;;;;4958135;28;20929;-70
2022/07/04 08:22:46;;;;;;;4.90;1.83;;;30.90;91.60;;;;;;4969719;28;20333;-72
2022/07/04 08:25:14;;;;;;;3.33;2.20;;;31.00;92.80;;;;;;4950642;28;20712;-71
2022/07/04 08:27:41;;;;;;;6.97;2.00;;;31.10;92.70;;;;;;4958017;28;20198;-73
2022/07/04 08:30:08;;;;;;;5.63;2.35;;;31.10;92.20;;;;;;4949982;28;20267;-73
2022/07/04 08:32:35;;;;;;;5.38;2.00;;;31.20;93.00;;;;;;4948431;28;20198;-72
2022/07/04 08:35:06;;;;;;;7.88;1.90;;;31.20;91.20;;;;;;4947014;28;20243;-72
2022/07/04 08:37:33;;;;;;;4.22;1.90;;;31.30;91.30;;;;;;4958720;28;20668;-73
2022/07/04 08:39:59;;;;;;;5.55;2.00;;;31.40;90.10;;;;;;4934181;28;20183;-72
2022/07/04 08:42:29;;;;;;;7.47;1.98;;;31.40;90.30;;;;;;4949217;28;20186;-72
2022/07/04 08:44:57;;;;;;;5.90;2.03;;;31.50;90.90;;;;;;4945266;28;20600;-72
2022/07/04 08:47:26;;;;;;;10.68;2.05;;;31.50;88.90;;;;;;4958255;28;20555;-73
2022/07/04 08:50:12;;;;;;;9.30;2.10;;;31.60;90.30;;;;;;4957619;28;20179;-73
2022/07/04 08:52:42;;;;;;;6.43;2.22;;;31.70;89.10;;;;;;4956817;28;20194;-72
2022/07/04 09:00:47;;;;;;;8.02;2.17;;;31.90;91.00;;;;;;4965095;28;20191;-73
2022/07/04 09:03:13;;;;;;;11.57;1.90;;;32.00;89.70;;;;;;4963888;28;20727;-73
2022/07/04 09:05:40;;;;;;;4.72;2.05;;;32.10;90.60;;;;;;4945309;29;20312;-72
2022/07/04 09:08:07;;;;;;;6.10;2.35;;;32.20;91.30;;;;;;4951169;29;20206;-72
2022/07/04 09:10:34;;;;;;;4.40;2.00;;;32.30;91.50;;;;;;4937319;28;20586;-73
2022/07/04 09:13:04;;;;;;;10.75;2.00;;;32.30;91.50;;;;;;4957644;28;20297;-72
2022/07/04 09:15:31;;;;;;;10.00;1.88;;;32.40;92.80;;;;;;4950376;28;20214;-71
2022/07/04 09:18:00;;;;;;;8.48;2.00;;;32.40;92.10;;;;;;4953585;28;20574;-73
2022/07/04 09:20:28;;;;;;;4.93;1.77;;;32.50;92.60;;;;;;4971630;28;20198;-71
2022/07/04 09:22:55;;;;;;;5.75;1.95;;;32.60;92.40;;;;;;4972547;28;20278;-71
2022/07/04 09:25:24;;;;;;;7.60;1.98;;;32.60;93.30;;;;;;4948206;28;20197;-73
2022/07/04 09:27:56;;;;;;;6.43;2.08;;;32.60;93.20;;;;;;4955795;28;20233;-73
2022/07/04 09:30:26;;;;;;;10.02;1.98;;;32.60;93.00;;;;;;4946399;28;20202;-72
2022/07/04 09:33:00;;;;;;;4.80;2.00;;;32.60;91.70;;;;;;4964823;28;20195;-74
2022/07/04 09:35:31;;;;;;;6.28;1.90;;;32.60;93.80;;;;;;4954526;28;20218;-70
2022/07/04 09:38:05;;;;;;;3.50;1.90;;;32.60;92.10;;;;;;4943899;28;20541;-74
2022/07/04 09:43:22;;;;;;;5.63;1.80;;;32.60;93.30;;;;;;4954088;28;22304;-73
2022/07/04 09:46:01;;;;;;;3.00;1.85;;;32.50;93.20;;;;;;4931802;29;20569;-72
2022/07/04 09:48:49;;;;;;;6.15;2.15;;;32.70;92.60;;;;;;4965082;28;20186;-73
2022/07/04 09:51:38;;;;;;;3.75;1.60;;;32.70;93.20;;;;;;4954149;28;20198;-73
2022/07/04 09:54:26;;;;;;;2.53;1.67;;;32.90;92.70;;;;;;4948835;28;21009;-74
2022/07/04 09:56:57;;;;;;;6.28;2.17;;;32.80;92.30;;;;;;4951256;28;20614;-73
2022/07/04 09:59:27;;;;;;;5.80;1.98;;;32.90;91.00;;;;;;4960330;28;20195;-73
2022/07/04 10:02:11;;;;;;;4.22;1.80;;;32.80;91.80;;;;;;4947829;28;20654;-72
2022/07/04 10:04:52;;;;;;;6.00;2.20;;;32.90;91.80;;;;;;4951459;28;20195;-71
2022/07/04 10:07:43;;;;;;;5.18;1.98;;;33.10;92.30;;;;;;4932578;29;20218;-71
2022/07/04 10:10:33;;;;;;;2.00;1.77;;;33.10;92.90;;;;;;4948150;28;20302;-72
2022/07/04 10:13:10;;;;;;;7.97;1.95;;;33.10;91.40;;;;;;4945072;28;20207;-71
2022/07/04 10:15:42;;;;;;;4.95;1.90;;;33.10;91.40;;;;;;4951429;28;20221;-72
2022/07/04 10:18:10;;;;;;;4.32;2.17;;;33.30;91.40;;;;;;4959014;28;20194;-73
2022/07/04 10:20:37;;;;;;;4.93;1.85;;;33.30;91.30;;;;;;4964079;28;20190;-71
2022/07/04 10:23:03;;;;;;;6.00;1.95;;;33.20;92.10;;;;;;4944858;29;20660;-73
2022/07/04 10:25:30;;;;;;;9.23;1.70;;;32.80;92.60;;;;;;4965159;28;20206;-73
2022/07/04 10:27:59;;;;;;;3.67;1.98;;;32.90;92.60;;;;;;4960186;28;20296;-71
2022/07/04 10:30:31;;;;;;;8.93;2.08;;;33.10;91.70;;;;;;4954575;28;20305;-71
2022/07/04 10:33:03;;;;;;;3.67;1.90;;;33.10;91.50;;;;;;4968233;28;20191;-70
2022/07/04 10:36:15;;;;;;;4.03;1.90;;;32.90;92.00;;;;;;4972462;28;20226;-70
2022/07/04 10:39:03;;;;;;;6.65;2.03;;;33.00;92.00;;;;;;4915942;29;20196;-73
2022/07/04 10:41:31;;;;;;;4.50;1.90;;;32.90;92.30;;;;;;4946762;28;20182;-71
2022/07/04 10:44:07;;;;;;;5.65;1.95;;;32.80;92.00;;;;;;4960716;28;20253;-71
2022/07/04 10:46:49;;;;;;;2.30;1.90;;;32.80;92.10;;;;;;4955511;28;20276;-69
2022/07/04 10:49:16;;;;;;;5.38;1.75;;;32.90;92.80;;;;;;4946766;28;20187;-71
2022/07/04 10:51:49;;;;;;;6.97;1.90;;;32.80;93.50;;;;;;4946154;28;20190;-72
2022/07/04 10:54:41;;;;;;;6.05;2.15;;;32.90;92.70;;;;;;4949090;28;20292;-72
2022/07/04 10:57:24;;;;;;;6.97;2.03;;;32.70;93.00;;;;;;4950127;28;20233;-72
2022/07/04 10:59:57;;;;;;;7.30;2.30;;;32.80;93.70;;;;;;4946216;29;20183;-71
2022/07/04 11:02:38;;;;;;;3.42;1.98;;;32.70;94.10;;;;;;4947628;28;20270;-73
2022/07/04 11:05:14;;;;;;;9.02;2.10;;;32.70;93.70;;;;;;4959787;28;20190;-72
2022/07/04 11:07:41;;;;;;;2.67;1.70;;;32.70;93.60;;;;;;4957877;28;20196;-71
2022/07/04 11:10:13;;;;;;;2.85;1.98;;;32.80;93.90;;;;;;4933079;28;20201;-73
2022/07/04 11:12:57;;;;;;;2.40;1.70;;;32.70;94.30;;;;;;4957751;28;20206;-71
2022/07/04 11:15:32;;;;;;;3.80;1.92;;;32.70;94.40;;;;;;4945532;29;20211;-71
2022/07/04 11:18:05;;;;;;;5.32;1.80;;;32.80;94.20;;;;;;4944694;29;20598;-70
2022/07/04 11:20:38;;;;;;;8.82;2.00;;;32.70;93.50;;;;;;4959722;28;20183;-71
2022/07/04 11:23:10;;;;;;;6.38;1.80;;;32.70;94.10;;;;;;4960513;28;20187;-73
2022/07/04 11:25:39;;;;;;;8.75;1.70;;;32.80;93.40;;;;;;4946909;28;20202;-71
2022/07/04 11:28:31;;;;;;;5.63;1.85;;;32.70;93.60;;;;;;4936229;28;20194;-71
2022/07/04 11:31:02;;;;;;;3.78;1.60;;;32.50;93.40;;;;;;4971169;28;20222;-71
2022/07/04 11:33:36;;;;;;;9.85;2.00;;;32.50;93.70;;;;;;4961030;28;20192;-70
2022/07/04 11:36:20;;;;;;;13.18;2.08;;;32.50;93.20;;;;;;4964292;28;20640;-72
2022/07/04 11:38:58;;;;;;;3.08;1.70;;;32.50;93.40;;;;;;4958275;28;20187;-72
2022/07/04 11:47:38;;;;;;;6.47;1.98;;;32.70;91.90;;;;;;4947257;28;20191;-72
2022/07/04 11:50:14;;;;;;;5.10;1.73;;;32.70;91.60;;;;;;4943098;28;20199;-72
2022/07/04 11:52:48;;;;;;;6.95;1.60;;;32.70;91.30;;;;;;4952172;28;20193;-70
2022/07/04 11:55:17;;;;;;;4.78;2.05;;;32.70;91.40;;;;;;4949362;28;20219;-72
2022/07/04 11:57:55;;;;;;;4.60;1.80;;;32.70;91.10;;;;;;4966263;28;20186;-73
2022/07/04 12:00:27;;;;;;;5.15;1.80;;;32.80;90.70;;;;;;4954093;28;20198;-71
2022/07/04 12:03:00;;;;;;;5.93;1.70;;;32.70;91.00;;;;;;4950538;28;20832;-70
2022/07/04 12:05:27;;;;;;;4.93;1.63;;;32.70;90.60;;;;;;4968881;28;21631;-71
2022/07/04 12:07:54;;;;;;;5.88;1.80;;;32.70;91.40;;;;;;4950376;29;20210;-72
2022/07/04 12:10:24;;;;;;;10.90;2.05;;;32.90;90.50;;;;;;4947929;29;20214;-71
2022/07/04 12:12:59;;;;;;;3.70;1.83;;;32.90;91.00;;;;;;4950628;28;20556;-72
2022/07/04 12:15:37;;;;;;;2.97;1.60;;;33.00;91.00;;;;;;4962577;28;20229;-72
2022/07/04 12:18:05;;;;;;;2.85;1.60;;;33.00;90.50;;;;;;4934603;29;20179;-70
2022/07/04 12:20:34;;;;;;;9.48;1.73;;;32.90;91.10;;;;;;4951960;28;20183;-71
2022/07/04 12:23:03;;;;;;;6.28;1.92;;;32.80;90.20;;;;;;4948973;29;20198;-70
2022/07/04 12:25:39;;;;;;;6.07;1.85;;;33.00;89.70;;;;;;4959777;28;20194;-71
2022/07/04 12:28:14;;;;;;;8.38;1.80;;;33.00;90.00;;;;;;4954954;28;20192;-71
2022/07/04 12:30:57;;;;;;;7.70;1.55;;;32.80;90.50;;;;;;4952520;28;20297;-72
2022/07/04 12:33:27;;;;;;;8.30;1.67;;;32.90;90.10;;;;;;4930427;29;20258;-72
2022/07/04 12:36:03;;;;;;;4.80;1.55;;;32.80;90.70;;;;;;4950250;28;20215;-72
2022/07/04 12:38:29;;;;;;;7.13;1.77;;;32.90;90.30;;;;;;4955597;28;20605;-70
2022/07/04 12:41:13;;;;;;;4.28;1.95;;;32.80;90.40;;;;;;4937415;28;20183;-72
2022/07/04 12:43:42;;;;;;;4.45;1.77;;;32.80;90.30;;;;;;4950810;28;20622;-69
2022/07/04 12:46:32;;;;;;;5.95;1.90;;;32.90;90.50;;;;;;4952845;28;20225;-71
2022/07/04 12:49:02;;;;;;;6.03;1.92;;;32.90;90.40;;;;;;4943106;28;20199;-70
2022/07/04 12:51:34;;;;;;;5.47;1.50;;;33.00;90.50;;;;;;4965488;28;20199;-71
2022/07/04 12:54:11;;;;;;;9.93;2.20;;;33.10;90.90;;;;;;4949428;28;20794;-70
2022/07/04 12:56:46;;;;;;;4.38;1.88;;;32.90;91.00;;;;;;4942239;29;20203;-71
2022/07/04 12:59:18;;;;;;;4.32;1.75;;;32.90;91.20;;;;;;4951393;28;20205;-71
2022/07/04 13:01:46;;;;;;;7.32;1.73;;;32.90;91.20;;;;;;4952207;28;20189;-70
2022/07/04 13:04:13;;;;;;;6.55;1.90;;;32.90;91.00;;;;;;4950873;28;20313;-71
2022/07/04 13:06:41;;;;;;;5.50;1.90;;;32.80;91.40;;;;;;4949442;28;20203;-71
2022/07/04 13:09:08;;;;;;;5.55;1.80;;;32.90;90.90;;;;;;4943086;29;20206;-72
2022/07/04 13:14:21;;;;;;;7.60;1.85;;;32.70;91.10;;;;;;4948155;29;20219;-71
2022/07/04 13:16:47;;;;;;;5.28;1.67;;;32.60;91.20;;;;;;4958639;28;20259;-70
2022/07/04 13:19:16;;;;;;;4.63;1.63;;;32.60;91.40;;;;;;4952558;28;20291;-71
2022/07/04 13:21:43;;;;;;;7.65;1.98;;;32.60;91.60;;;;;;4951402;28;20840;-72
2022/07/04 13:24:10;;;;;;;8.65;1.88;;;32.40;91.30;;;;;;4963674;28;20230;-69